Time;durP1;ratioP1;P1;durP2;ratioP2;P2;SDS_P1;SDS_P2;PMS_P1;PMS_P2;Temp;Humidity;BMP_temperature;BMP_pressure;BME280_temperature;BME280_humidity;BME280_pressure;Samples;Min_cycle;Max_cycle;Signal;HPM_P1;HPM_P2
2023/11/01 00:01:23;;;;;;;7.00;6.30;;;;;;;9.23;90.38;98017.52;224658;1291;22564;-81
2023/11/01 00:06:33;;;;;;;7.30;6.60;;;;;;;9.16;90.47;98022.66;224492;1292;22565;-81
2023/11/01 00:11:36;;;;;;;8.70;7.60;;;;;;;9.10;90.53;98030.61;224343;1289;22547;-81
2023/11/01 00:16:38;;;;;;;11.00;7.80;;;;;;;9.05;90.63;98036.75;224496;1291;22563;-81
2023/11/01 00:22:01;;;;;;;8.20;7.40;;;;;;;8.99;90.61;98045.13;224491;1292;22557;-81
2023/11/01 00:27:06;;;;;;;10.30;8.40;;;;;;;8.94;90.73;98050.65;224559;1291;22555;-81
2023/11/01 00:32:08;;;;;;;8.80;7.80;;;;;;;8.90;90.90;98053.59;224473;1286;24252;-81
2023/11/01 00:37:11;;;;;;;8.20;7.50;;;;;;;8.88;90.77;98059.67;224616;1292;22559;-81
2023/11/01 00:42:14;;;;;;;8.80;8.00;;;;;;;8.84;90.89;98063.45;224550;1286;22686;-80
2023/11/01 00:47:19;;;;;;;7.30;6.60;;;;;;;8.82;90.84;98069.15;224473;1292;22592;-81
2023/11/01 00:52:44;;;;;;;8.10;7.40;;;;;;;8.84;91.13;98074.84;224475;1292;22581;-81
2023/11/01 00:57:50;;;;;;;7.80;7.10;;;;;;;8.89;91.20;98081.64;224178;1292;22557;-82
2023/11/01 01:02:54;;;;;;;8.10;7.30;;;;;;;8.94;91.38;98088.70;224481;1292;22552;-81
2023/11/01 01:08:00;;;;;;;7.90;7.20;;;;;;;8.99;91.26;98093.60;224610;1292;22555;-80
2023/11/01 01:13:22;;;;;;;7.20;6.60;;;;;;;9.03;91.35;98097.41;224512;1292;22563;-80
2023/11/01 01:18:43;;;;;;;8.40;7.70;;;;;;;9.06;91.23;98100.73;223406;1297;22602;-81
2023/11/01 01:23:46;;;;;;;6.80;6.20;;;;;;;9.10;91.37;98096.81;223426;1295;22619;-81
2023/11/01 01:28:52;;;;;;;7.90;7.20;;;;;;;9.13;91.37;98096.67;223192;1296;22637;-82
2023/11/01 01:33:54;;;;;;;8.30;7.50;;;;;;;9.15;91.03;98107.31;223342;1297;22573;-82
2023/11/01 01:38:57;;;;;;;8.10;7.20;;;;;;;9.16;90.99;98112.19;223407;1295;22591;-82
2023/11/01 01:44:00;;;;;;;7.50;6.80;;;;;;;9.18;90.99;98108.77;222987;1297;234641;-82
2023/11/01 01:49:05;;;;;;;7.40;6.50;;;;;;;9.20;91.02;98110.28;223732;1292;22672;-81
2023/11/01 01:54:08;;;;;;;6.70;5.90;;;;;;;9.24;90.85;98112.00;224516;1292;23592;-82
2023/11/01 01:59:13;;;;;;;6.50;5.90;;;;;;;9.27;90.86;98105.81;224482;1292;22581;-81
2023/11/01 02:04:16;;;;;;;6.10;5.70;;;;;;;9.28;90.80;98108.42;224335;1292;22562;-80
2023/11/01 02:09:31;;;;;;;7.00;6.30;;;;;;;9.29;90.60;98108.64;224348;1289;22679;-82
2023/11/01 02:14:37;;;;;;;8.40;6.80;;;;;;;9.29;90.65;98109.36;224556;1286;22685;-81
2023/11/01 02:19:39;;;;;;;8.10;7.00;;;;;;;9.28;90.54;98117.34;224512;1292;22599;-81
2023/11/01 02:24:59;;;;;;;9.60;7.20;;;;;;;9.27;90.58;98118.89;224517;1292;22560;-82
2023/11/01 02:30:01;;;;;;;;;;;;;;;9.26;90.68;98118.02;224546;1289;25271;-81
2023/11/01 02:35:06;;;;;;;8.60;7.70;;;;;;;9.25;90.55;98122.43;224443;1291;22592;-82
2023/11/01 02:40:11;;;;;;;9.50;8.50;;;;;;;9.24;90.62;98130.21;224366;1292;22618;-81
2023/11/01 02:45:15;;;;;;;9.10;7.80;;;;;;;9.23;90.45;98130.86;224534;1270;24311;-82
2023/11/01 02:50:29;;;;;;;9.70;7.60;;;;;;;9.24;90.47;98128.88;224473;1286;22563;-81
2023/11/01 02:55:32;;;;;;;8.20;7.40;;;;;;;9.23;90.19;98127.40;224619;1288;22659;-81
2023/11/01 03:00:35;;;;;;;8.20;7.40;;;;;;;9.24;90.53;98122.91;224347;1291;22571;-81
2023/11/01 03:05:37;;;;;;;8.20;7.10;;;;;;;9.24;90.34;98126.59;224450;1291;22567;-80
2023/11/01 03:10:50;;;;;;;11.80;7.80;;;;;;;9.23;90.31;98129.52;224464;1286;22622;-80
2023/11/01 03:15:53;;;;;;;8.80;7.90;;;;;;;9.22;90.27;98138.02;224570;1292;22588;-80
2023/11/01 03:20:57;;;;;;;8.70;7.90;;;;;;;9.20;90.30;98137.73;224477;1291;22593;-80
2023/11/01 03:26:01;;;;;;;7.90;7.10;;;;;;;9.20;90.12;98140.04;224473;1292;22688;-80
2023/11/01 03:31:08;;;;;;;8.10;7.30;;;;;;;9.18;90.15;98138.48;224601;1276;22563;-82
2023/11/01 03:36:14;;;;;;;7.70;6.90;;;;;;;9.17;90.18;98146.54;224617;1292;22610;-80
2023/11/01 03:41:44;;;;;;;8.70;7.90;;;;;;;9.17;90.23;98148.80;224612;1286;22586;-81
2023/11/01 03:46:47;;;;;;;7.70;7.00;;;;;;;9.18;90.11;98153.35;224528;1292;22547;-81
2023/11/01 03:51:49;;;;;;;7.80;7.10;;;;;;;9.17;90.08;98152.17;224509;1292;22555;-81
2023/11/01 03:56:52;;;;;;;8.30;7.50;;;;;;;9.17;90.05;98159.55;224595;1289;22566;-81
2023/11/01 04:02:06;;;;;;;7.00;6.40;;;;;;;9.17;90.21;98163.44;224335;1289;22579;-80
2023/11/01 04:07:14;;;;;;;8.40;7.40;;;;;;;9.16;89.93;98161.25;224485;1286;24272;-81
2023/11/01 04:12:19;;;;;;;7.80;7.10;;;;;;;9.16;89.94;98161.94;224469;1286;22563;-81
2023/11/01 04:17:24;;;;;;;8.30;7.50;;;;;;;9.16;89.82;98167.98;224466;1292;22631;-82
2023/11/01 04:22:28;;;;;;;8.60;7.70;;;;;;;9.15;89.75;98170.64;224451;1292;22643;-82
2023/11/01 04:27:41;;;;;;;9.40;8.50;;;;;;;9.13;89.68;98172.86;224521;1292;22557;-81
2023/11/01 04:32:44;;;;;;;9.10;8.20;;;;;;;9.11;89.62;98169.27;224553;1292;22560;-79
2023/11/01 04:37:47;;;;;;;8.90;8.00;;;;;;;9.08;89.97;98169.98;224517;1292;22585;-80
2023/11/01 04:42:50;;;;;;;8.90;8.00;;;;;;;9.06;89.95;98170.05;224635;1292;22555;-81
2023/11/01 04:47:57;;;;;;;8.90;8.10;;;;;;;9.05;89.99;98173.57;224484;1292;22562;-82
2023/11/01 04:53:00;;;;;;;9.40;7.80;;;;;;;9.03;89.66;98179.77;224234;1292;22550;-82
2023/11/01 04:58:03;;;;;;;10.70;7.80;;;;;;;9.02;89.76;98181.14;224489;1292;22564;-81
2023/11/01 05:03:16;;;;;;;8.90;8.10;;;;;;;9.02;89.99;98185.96;224475;1286;22666;-81
2023/11/01 05:08:19;;;;;;;8.80;7.70;;;;;;;9.02;89.93;98192.81;224531;1286;22598;-81
2023/11/01 05:13:22;;;;;;;9.30;8.40;;;;;;;9.02;89.97;98198.62;224605;1290;22563;-82
2023/11/01 05:18:45;;;;;;;9.10;7.90;;;;;;;9.02;89.84;98199.80;224515;1286;22598;-82
2023/11/01 05:23:48;;;;;;;8.30;7.40;;;;;;;9.01;89.91;98200.92;223596;1297;25358;-80
2023/11/01 05:28:51;;;;;;;8.60;7.80;;;;;;;9.01;89.63;98199.38;223371;1295;24214;-80
2023/11/01 05:34:03;;;;;;;8.60;7.70;;;;;;;9.01;89.69;98202.41;223382;1295;22558;-82
2023/11/01 05:39:06;;;;;;;8.50;7.70;;;;;;;9.00;89.72;98210.42;223615;1297;22593;-81
2023/11/01 05:44:14;;;;;;;8.60;7.00;;;;;;;9.00;89.92;98212.90;223589;1294;22570;-82
2023/11/01 05:49:24;;;;;;;7.10;6.40;;;;;;;8.99;89.46;98219.63;223418;1295;22947;-80
2023/11/01 05:54:28;;;;;;;7.70;7.00;;;;;;;8.99;89.58;98226.02;224008;1292;22547;-80
2023/11/01 05:59:31;;;;;;;6.30;5.80;;;;;;;9.00;89.32;98234.14;224546;1289;22630;-81
2023/11/01 06:04:34;;;;;;;6.10;5.40;;;;;;;9.01;89.55;98244.21;224518;1292;22598;-80
2023/11/01 06:09:37;;;;;;;6.50;5.70;;;;;;;9.03;89.38;98250.48;224474;1289;22950;-80
2023/11/01 06:14:39;;;;;;;6.60;5.90;;;;;;;9.06;89.22;98251.42;224520;1292;22571;-80
2023/11/01 06:19:42;;;;;;;8.10;6.10;;;;;;;9.09;89.14;98260.67;224474;1291;22594;-80
2023/11/01 06:24:44;;;;;;;7.20;5.10;;;;;;;9.16;89.08;98267.07;224498;1292;22606;-81
2023/11/01 06:29:47;;;;;;;6.40;5.10;;;;;;;9.22;88.84;98269.98;224597;1292;22549;-82
2023/11/01 06:34:53;;;;;;;7.40;6.10;;;;;;;9.27;88.92;98264.58;224481;1292;22583;-80
2023/11/01 06:39:56;;;;;;;7.60;6.40;;;;;;;9.28;88.56;98269.77;224452;1292;22552;-79
2023/11/01 06:44:58;;;;;;;8.50;7.30;;;;;;;9.22;88.43;98280.69;224472;1292;23048;-81
2023/11/01 06:50:01;;;;;;;10.60;7.10;;;;;;;9.15;88.41;98290.38;224468;1292;22550;-80
2023/11/01 06:55:07;;;;;;;7.80;7.00;;;;;;;9.09;88.40;98291.81;224484;1292;22584;-82
2023/11/01 07:00:11;;;;;;;9.50;6.80;;;;;;;9.05;88.53;98287.94;224571;1292;22564;-80
2023/11/01 07:05:14;;;;;;;7.30;6.60;;;;;;;9.09;88.60;98283.73;224351;1292;23281;-79
2023/11/01 07:10:17;;;;;;;7.70;6.90;;;;;;;9.25;88.72;98290.85;224455;1292;22563;-81
2023/11/01 07:15:21;;;;;;;8.60;6.30;;;;;;;9.44;88.83;98289.71;224556;1287;25290;-82
2023/11/01 07:20:25;;;;;;;9.30;5.50;;;;;;;9.68;88.65;98295.65;224460;1292;22680;-81
2023/11/01 07:25:28;;;;;;;6.80;5.20;;;;;;;9.91;88.26;98301.61;224454;1292;22573;-81
2023/11/01 07:30:35;;;;;;;7.90;5.10;;;;;;;10.02;87.51;98296.95;224477;1292;22563;-81
2023/11/01 07:35:43;;;;;;;6.10;4.30;;;;;;;10.16;87.24;98293.86;224496;1292;22548;-82
2023/11/01 07:40:46;;;;;;;6.60;4.40;;;;;;;10.36;86.91;98289.96;224497;1292;22547;-82
2023/11/01 07:45:49;;;;;;;5.70;3.80;;;;;;;10.50;86.59;98296.60;224476;1292;22598;-82
2023/11/01 07:50:52;;;;;;;6.60;4.10;;;;;;;10.61;86.01;98293.08;224568;1289;25645;-81
2023/11/01 07:56:12;;;;;;;5.80;3.50;;;;;;;10.74;85.76;98297.46;224508;1289;22579;-81
2023/11/01 08:01:15;;;;;;;7.90;3.80;;;;;;;10.86;85.42;98299.50;224438;1289;22555;-81
2023/11/01 08:06:31;;;;;;;4.20;3.30;;;;;;;10.94;85.06;98304.44;224303;1292;24266;-81
2023/11/01 08:11:56;;;;;;;5.60;3.30;;;;;;;11.06;84.81;98301.67;224442;1292;22603;-82
2023/11/01 08:17:07;;;;;;;;;;;;;;;11.20;84.73;98299.58;223059;1299;22747;-81
2023/11/01 08:22:13;;;;;;;4.50;2.70;;;;;;;11.32;84.21;98299.32;222898;1299;22577;-81
2023/11/01 08:27:36;;;;;;;4.00;2.50;;;;;;;11.41;83.86;98299.19;222885;1298;22559;-83
2023/11/01 08:32:40;;;;;;;3.70;2.60;;;;;;;11.52;83.44;98302.15;222994;1299;22559;-82
2023/11/01 08:37:43;;;;;;;4.40;2.50;;;;;;;11.61;83.19;98303.93;223001;1299;22573;-81
2023/11/01 08:42:58;;;;;;;4.70;2.10;;;;;;;11.71;82.57;98306.52;222914;1298;22602;-82
2023/11/01 08:48:01;;;;;;;3.70;2.40;;;;;;;11.80;82.33;98305.52;224122;1292;22595;-82
2023/11/01 08:53:03;;;;;;;5.00;2.80;;;;;;;11.86;82.04;98307.88;224613;1290;23048;-82
2023/11/01 08:58:07;;;;;;;5.20;2.70;;;;;;;11.91;81.79;98305.15;224596;1292;22698;-80
2023/11/01 09:03:13;;;;;;;5.70;2.70;;;;;;;11.94;81.61;98309.55;224491;1292;23295;-80
2023/11/01 09:08:17;;;;;;;4.80;2.70;;;;;;;11.99;81.40;98311.66;224310;1289;22584;-80
2023/11/01 09:13:20;;;;;;;3.70;2.80;;;;;;;12.02;80.89;98317.83;224416;1292;23284;-81
2023/11/01 09:18:23;;;;;;;4.90;2.80;;;;;;;12.07;80.80;98320.26;224435;1292;22582;-80
2023/11/01 09:23:25;;;;;;;4.20;2.50;;;;;;;12.27;80.85;98326.91;224427;1292;22585;-81
2023/11/01 09:28:28;;;;;;;3.70;2.80;;;;;;;12.44;80.60;98324.14;224465;1291;25308;-81
2023/11/01 09:33:31;;;;;;;4.20;2.60;;;;;;;12.59;80.32;98322.01;224574;1292;22555;-81
2023/11/01 09:38:34;;;;;;;4.50;2.50;;;;;;;12.67;79.74;98321.38;224444;1292;22543;-81
2023/11/01 09:43:39;;;;;;;4.90;2.60;;;;;;;12.69;79.40;98312.36;224540;1289;22570;-80
2023/11/01 09:48:42;;;;;;;3.00;2.40;;;;;;;12.86;79.98;98310.38;224434;1291;22598;-81
2023/11/01 09:54:06;;;;;;;;;;;;;;;;;;;;;
2023/11/01 09:59:09;;;;;;;3.60;1.80;;;;;;;13.13;79.85;98309.10;224573;1292;22560;-81
2023/11/01 10:04:15;;;;;;;6.20;2.00;;;;;;;13.10;79.13;98309.80;224608;1292;22570;-81
2023/11/01 10:09:17;;;;;;;2.00;1.80;;;;;;;12.95;78.39;98313.50;224503;1292;22578;-82
2023/11/01 10:14:38;;;;;;;3.60;1.80;;;;;;;12.87;78.67;98306.55;224459;1292;22584;-81
2023/11/01 10:19:44;;;;;;;3.10;2.10;;;;;;;12.89;78.89;98303.34;224540;1291;22551;-81
2023/11/01 10:24:46;;;;;;;2.90;1.90;;;;;;;12.96;78.50;98300.23;224485;1292;22602;-80
2023/11/01 10:29:52;;;;;;;3.40;2.10;;;;;;;13.10;78.62;98297.78;224485;1292;22555;-80
2023/11/01 10:35:14;;;;;;;3.20;1.70;;;;;;;13.34;78.39;98300.09;224429;1292;23195;-81
2023/11/01 10:40:17;;;;;;;2.20;1.80;;;;;;;13.56;77.68;98302.91;224281;1292;22580;-80
2023/11/01 10:45:19;;;;;;;3.80;2.20;;;;;;;13.58;76.58;98303.42;224283;1292;22585;-79
2023/11/01 10:50:25;;;;;;;3.50;1.90;;;;;;;13.32;76.04;98301.38;224331;1289;22564;-80
2023/11/01 10:55:28;;;;;;;1.90;1.80;;;;;;;13.15;76.66;98300.20;224303;1290;22565;-81
2023/11/01 11:00:52;;;;;;;2.70;2.10;;;;;;;13.13;77.23;98293.95;224487;1286;22590;-79
2023/11/01 11:06:15;;;;;;;2.50;2.00;;;;;;;13.13;77.41;98290.86;224486;1291;22552;-81
2023/11/01 11:11:18;;;;;;;3.50;1.90;;;;;;;13.37;77.88;98282.39;224342;1290;22559;-80
2023/11/01 11:16:22;;;;;;;2.20;1.80;;;;;;;13.62;77.84;98284.73;224394;1292;22547;-81
2023/11/01 11:21:47;;;;;;;2.80;1.70;;;;;;;13.89;77.51;98278.57;224459;1283;22593;-83
2023/11/01 11:26:49;;;;;;;2.70;1.80;;;;;;;14.09;76.78;98276.00;224507;1289;22558;-81
2023/11/01 11:31:57;;;;;;;2.70;2.40;;;;;;;14.21;76.65;98267.48;224432;1292;22571;-81
2023/11/01 11:37:08;;;;;;;3.30;1.90;;;;;;;14.41;76.02;98264.38;224332;1292;22555;-82
2023/11/01 11:42:40;;;;;;;1.90;1.70;;;;;;;14.56;75.20;98259.67;224536;1291;22762;-79
2023/11/01 11:48:24;;;;;;;3.50;1.90;;;;;;;14.73;75.14;98257.14;224455;1292;22703;-82
2023/11/01 11:53:27;;;;;;;3.40;2.10;;;;;;;14.86;74.89;98252.15;224497;1289;22559;-82
2023/11/01 11:58:30;;;;;;;2.60;1.80;;;;;;;14.87;74.28;98250.50;224512;1292;22569;-82
2023/11/01 12:03:49;;;;;;;2.50;2.10;;;;;;;14.82;74.26;98254.35;224413;1292;22598;-81
2023/11/01 12:08:54;;;;;;;2.70;1.70;;;;;;;14.91;74.64;98248.85;224564;1290;23187;-80
2023/11/01 12:13:57;;;;;;;4.40;2.10;;;;;;;15.02;74.46;98246.95;224475;1292;22645;-81
2023/11/01 12:19:29;;;;;;;3.40;1.70;;;;;;;15.15;74.03;98244.77;224497;1286;22573;-81
2023/11/01 12:24:42;;;;;;;2.00;1.60;;;;;;;15.25;73.23;98246.91;224489;1292;22551;-82
2023/11/01 12:29:47;;;;;;;4.00;1.90;;;;;;;15.22;72.62;98244.81;224553;1292;22581;-82
2023/11/01 12:35:04;;;;;;;3.70;2.30;;;;;;;14.99;72.34;98238.11;224328;1292;22576;-81
2023/11/01 12:40:12;;;;;;;10.60;8.30;;;;;;;14.89;73.30;98233.12;224600;1285;22563;-82
2023/11/01 12:45:19;;;;;;;3.60;1.90;;;;;;;15.19;73.96;98222.34;224578;1292;22597;-83
2023/11/01 12:50:28;;;;;;;2.30;1.40;;;;;;;15.50;72.84;98223.89;224452;1290;25258;-82
2023/11/01 12:55:31;;;;;;;2.90;1.40;;;;;;;15.53;71.70;98219.28;224503;1286;22579;-81
2023/11/01 13:01:01;;;;;;;1.10;1.00;;;;;;;15.47;71.02;98217.91;224599;1292;22630;-81
2023/11/01 13:06:10;;;;;;;1.20;1.00;;;;;;;15.49;71.33;98215.95;224486;1292;22563;-82
2023/11/01 13:11:25;;;;;;;2.40;1.20;;;;;;;15.44;70.25;98213.91;224510;1292;22547;-82
2023/11/01 13:16:40;;;;;;;1.80;1.30;;;;;;;15.36;70.72;98214.80;224504;1286;22569;-81
2023/11/01 13:21:49;;;;;;;2.50;1.40;;;;;;;15.23;70.88;98213.02;224623;1289;22592;-81
2023/11/01 13:26:52;;;;;;;2.20;1.60;;;;;;;15.11;71.24;98217.13;224336;1292;22570;-80
2023/11/01 13:32:17;;;;;;;2.40;1.60;;;;;;;15.14;71.45;98209.45;224319;1292;22584;-81
2023/11/01 13:37:25;;;;;;;2.10;1.30;;;;;;;15.12;70.92;98203.72;224461;1292;24576;-81
2023/11/01 13:42:27;;;;;;;2.10;1.50;;;;;;;14.90;70.91;98201.97;224468;1286;23259;-82
2023/11/01 13:47:30;;;;;;;4.00;1.50;;;;;;;14.66;70.99;98200.54;224197;1292;299493;-80
2023/11/01 13:52:35;;;;;;;3.40;1.50;;;;;;;14.41;70.92;98202.17;224433;1292;22638;-82
2023/11/01 13:58:15;;;;;;;;;;;;;;;;;;;;;
2023/11/01 14:03:18;;;;;;;4.80;2.60;;;;;;;14.19;71.59;98199.98;224591;1290;25471;-82
2023/11/01 14:08:21;;;;;;;2.10;1.50;;;;;;;14.26;71.75;98197.30;224520;1292;22555;-82
2023/11/01 14:13:28;;;;;;;2.30;1.20;;;;;;;14.31;71.62;98197.15;224145;1292;22545;-80
2023/11/01 14:18:32;;;;;;;1.50;1.10;;;;;;;14.26;71.49;98195.82;224524;1292;22576;-81
2023/11/01 14:23:35;;;;;;;1.20;1.00;;;;;;;14.21;71.26;98189.16;224483;1292;22555;-81
2023/11/01 14:28:40;;;;;;;1.50;1.20;;;;;;;14.17;71.28;98184.83;224317;1292;22559;-81
2023/11/01 14:33:43;;;;;;;3.90;1.40;;;;;;;14.08;71.75;98185.81;224604;1289;22596;-82
2023/11/01 14:38:46;;;;;;;1.80;1.30;;;;;;;13.91;71.86;98182.27;224306;1292;22849;-80
2023/11/01 14:43:49;;;;;;;1.50;1.10;;;;;;;13.74;72.17;98181.34;224587;1292;22559;-81
2023/11/01 14:48:52;;;;;;;1.40;1.20;;;;;;;13.55;72.25;98177.80;224386;1292;22573;-81
2023/11/01 14:54:27;;;;;;;1.00;0.90;;;;;;;13.32;72.12;98167.81;224329;1292;22543;-81
2023/11/01 14:59:33;;;;;;;2.30;0.90;;;;;;;13.08;72.54;98164.36;224439;1286;22584;-81
2023/11/01 15:04:35;;;;;;;1.70;1.20;;;;;;;12.90;72.76;98163.47;224449;1292;22607;-82
2023/11/01 15:09:40;;;;;;;2.30;0.90;;;;;;;12.70;72.94;98162.46;224485;1291;24286;-81
2023/11/01 15:14:42;;;;;;;1.90;1.30;;;;;;;12.48;73.28;98164.66;224475;1292;22566;-81
2023/11/01 15:19:47;;;;;;;1.30;1.00;;;;;;;12.27;73.82;98160.77;224584;1288;22566;-81
2023/11/01 15:24:52;;;;;;;2.80;1.60;;;;;;;12.08;74.45;98159.66;224490;1292;23353;-80
2023/11/01 15:29:54;;;;;;;2.60;2.00;;;;;;;11.91;74.79;98153.41;224391;1292;22563;-80
2023/11/01 15:34:57;;;;;;;4.90;3.80;;;;;;;11.76;75.18;98149.65;224328;1292;22580;-80
2023/11/01 15:40:01;;;;;;;4.60;3.10;;;;;;;11.62;75.56;98147.33;224564;1292;24259;-80
2023/11/01 15:45:07;;;;;;;5.00;3.40;;;;;;;11.49;75.94;98144.40;224517;1292;22588;-81
2023/11/01 15:50:10;;;;;;;5.50;3.40;;;;;;;11.35;76.11;98141.85;224591;1289;22624;-81
2023/11/01 15:55:12;;;;;;;5.80;4.30;;;;;;;11.22;76.31;98140.30;224430;1286;22594;-81
2023/11/01 16:00:15;;;;;;;6.90;4.80;;;;;;;11.11;76.69;98138.09;224438;1292;22589;-79
2023/11/01 16:05:18;;;;;;;7.10;4.60;;;;;;;10.99;77.08;98133.56;224401;1292;22597;-80
2023/11/01 16:10:21;;;;;;;7.60;4.40;;;;;;;10.87;77.16;98136.06;224431;1291;25260;-80
2023/11/01 16:15:50;;;;;;;7.20;4.40;;;;;;;10.77;77.43;98134.05;224470;1286;22645;-81
2023/11/01 16:21:15;;;;;;;19.50;12.80;;;;;;;10.68;77.63;98130.99;224490;1292;22561;-80
2023/11/01 16:26:17;;;;;;;8.30;6.30;;;;;;;10.60;77.82;98128.00;224539;1292;22586;-81
2023/11/01 16:31:20;;;;;;;10.30;6.10;;;;;;;10.52;77.97;98125.20;224539;1292;22569;-81
2023/11/01 16:36:23;;;;;;;9.20;7.30;;;;;;;10.45;78.11;98125.45;224304;1292;22570;-83
2023/11/01 16:41:27;;;;;;;11.60;6.40;;;;;;;10.39;78.28;98130.33;224450;1292;22566;-80
2023/11/01 16:46:38;;;;;;;13.30;8.00;;;;;;;10.34;78.47;98128.61;224487;1292;23006;-82
2023/11/01 16:51:41;;;;;;;8.70;5.80;;;;;;;10.26;78.68;98127.83;224363;1292;23249;-79
2023/11/01 16:57:06;;;;;;;8.80;6.10;;;;;;;10.18;78.86;98133.13;224452;1291;22614;-81
2023/11/01 17:02:08;;;;;;;7.90;6.00;;;;;;;10.09;78.97;98126.19;224494;1292;22589;-80
2023/11/01 17:07:11;;;;;;;11.50;6.20;;;;;;;10.00;79.18;98121.10;224457;1286;22554;-81
2023/11/01 17:12:17;;;;;;;9.40;6.40;;;;;;;9.91;79.30;98117.00;224433;1292;22578;-81
2023/11/01 17:17:21;;;;;;;12.60;6.10;;;;;;;9.82;79.64;98117.61;224547;1271;24242;-79
2023/11/01 17:22:56;;;;;;;;;;;;;;;;;;;;;
2023/11/01 17:28:01;;;;;;;11.50;6.10;;;;;;;9.65;80.03;98111.52;224529;1289;22569;-80
2023/11/01 17:33:04;;;;;;;9.50;6.10;;;;;;;9.58;80.23;98115.06;224479;1292;22578;-81
2023/11/01 17:38:39;;;;;;;9.40;6.90;;;;;;;9.52;80.49;98116.75;224456;1292;22555;-80
2023/11/01 17:43:50;;;;;;;8.50;5.50;;;;;;;9.46;80.38;98114.34;224467;1292;22555;-82
2023/11/01 17:48:54;;;;;;;10.20;6.10;;;;;;;9.41;80.54;98110.77;224251;1292;22884;-81
2023/11/01 17:54:02;;;;;;;13.90;8.00;;;;;;;9.36;80.89;98106.23;224323;1289;23699;-80
2023/11/01 17:59:05;;;;;;;11.10;7.10;;;;;;;9.28;80.79;98104.38;224615;1292;25675;-83
2023/11/01 18:04:11;;;;;;;14.30;7.90;;;;;;;9.20;81.18;98097.35;224443;1292;22578;-80
2023/11/01 18:09:18;;;;;;;13.70;8.50;;;;;;;9.11;80.87;98086.69;224548;1292;22573;-81
2023/11/01 18:14:20;;;;;;;13.60;7.90;;;;;;;9.03;81.35;98081.02;224451;1290;22595;-81
2023/11/01 18:19:23;;;;;;;12.50;6.80;;;;;;;8.97;81.11;98081.19;224460;1291;22563;-80
2023/11/01 18:25:00;;;;;;;13.30;7.80;;;;;;;8.91;81.61;98082.66;224439;1290;24333;-81
2023/11/01 18:30:11;;;;;;;10.40;6.80;;;;;;;8.86;81.50;98084.98;224095;1291;22561;-81
2023/11/01 18:35:18;;;;;;;9.30;6.90;;;;;;;8.82;81.76;98077.63;224513;1289;25793;-81
2023/11/01 18:40:45;;;;;;;10.60;6.70;;;;;;;8.77;82.32;98077.66;224538;1291;22566;-78
2023/11/01 18:45:50;;;;;;;11.30;6.70;;;;;;;8.75;81.95;98077.14;224546;1292;22596;-80
2023/11/01 18:50:53;;;;;;;9.80;6.10;;;;;;;8.72;81.99;98074.89;224469;1292;22563;-81
2023/11/01 18:55:58;;;;;;;10.00;6.30;;;;;;;8.69;82.57;98071.38;224563;1292;22566;-81
2023/11/01 19:01:01;;;;;;;9.30;6.00;;;;;;;8.65;82.37;98076.95;224555;1289;22539;-81
2023/11/01 19:06:04;;;;;;;11.60;7.70;;;;;;;8.62;82.49;98078.41;224509;1288;22697;-80
2023/11/01 19:11:07;;;;;;;19.90;13.20;;;;;;;8.58;82.51;98078.09;224466;1292;22567;-82
2023/11/01 19:16:12;;;;;;;21.70;14.20;;;;;;;8.55;82.49;98076.56;224261;1292;22704;-80
2023/11/01 19:21:18;;;;;;;19.00;13.00;;;;;;;8.49;82.54;98071.40;224268;1292;22578;-81
2023/11/01 19:26:23;;;;;;;18.90;12.50;;;;;;;8.43;82.70;98064.86;224505;1292;22552;-80
2023/11/01 19:31:28;;;;;;;18.80;12.50;;;;;;;8.35;82.74;98061.77;224455;1292;22639;-80
2023/11/01 19:36:32;;;;;;;18.70;13.10;;;;;;;8.29;82.87;98058.37;224494;1286;22565;-80
2023/11/01 19:41:37;;;;;;;21.70;13.00;;;;;;;8.23;82.89;98051.39;224481;1288;24247;-82
2023/11/01 19:46:42;;;;;;;20.50;12.90;;;;;;;8.17;83.30;98049.15;224439;1292;22572;-81
2023/11/01 19:51:49;;;;;;;39.00;27.70;;;;;;;8.11;83.09;98043.04;224635;1287;22660;-81
2023/11/01 19:56:53;;;;;;;17.30;11.80;;;;;;;8.06;83.36;98039.10;224617;1289;22574;-82
2023/11/01 20:01:56;;;;;;;20.70;12.60;;;;;;;8.02;83.34;98037.98;224477;1289;22691;-81
2023/11/01 20:07:00;;;;;;;17.30;13.10;;;;;;;7.99;83.18;98034.83;224325;1292;22550;-81
2023/11/01 20:12:06;;;;;;;14.30;9.90;;;;;;;7.96;83.65;98027.90;224410;1292;22682;-80
2023/11/01 20:17:15;;;;;;;17.70;11.50;;;;;;;7.95;83.50;98024.73;224303;1292;22558;-81
2023/11/01 20:22:24;;;;;;;20.00;13.70;;;;;;;7.93;83.86;98021.52;224172;1292;22601;-81
2023/11/01 20:27:29;;;;;;;18.20;12.60;;;;;;;7.94;84.02;98009.36;224578;1289;22573;-81
2023/11/01 20:32:36;;;;;;;16.30;11.80;;;;;;;7.94;84.14;98004.62;224546;1289;24278;-83
2023/11/01 20:37:42;;;;;;;13.40;9.70;;;;;;;7.94;83.88;98000.08;224343;1291;22602;-84
2023/11/01 20:42:49;;;;;;;13.60;9.70;;;;;;;7.93;83.92;98001.94;224296;1292;22566;-85
2023/11/01 20:47:53;;;;;;;14.10;8.10;;;;;;;7.92;83.94;97996.95;224258;1289;22555;-83
2023/11/01 20:53:00;;;;;;;10.50;7.70;;;;;;;7.92;84.27;97999.59;224430;1276;22553;-83
2023/11/01 20:58:03;;;;;;;12.70;8.30;;;;;;;7.92;84.21;97995.45;224385;1292;22546;-81
2023/11/01 21:03:07;;;;;;;12.50;8.50;;;;;;;7.90;84.10;97994.79;224460;1292;25264;-81
2023/11/01 21:08:21;;;;;;;15.40;10.80;;;;;;;7.87;84.25;97987.77;224443;1292;25375;-81
2023/11/01 21:13:32;;;;;;;11.10;7.10;;;;;;;7.86;84.21;97990.97;224453;1292;22604;-81
2023/11/01 21:18:35;;;;;;;10.10;6.80;;;;;;;7.84;84.46;97988.60;224189;1292;25249;-82
2023/11/01 21:23:38;;;;;;;10.40;6.50;;;;;;;7.83;84.28;97981.64;224478;1292;22570;-81
2023/11/01 21:28:41;;;;;;;11.60;7.00;;;;;;;7.85;84.33;97975.46;224455;1292;22587;-80
2023/11/01 21:33:45;;;;;;;13.30;7.30;;;;;;;7.85;84.14;97973.48;224464;1292;22566;-80
2023/11/01 21:38:55;;;;;;;10.90;6.90;;;;;;;7.85;84.02;97975.86;224478;1286;22546;-82
2023/11/01 21:43:59;;;;;;;9.90;6.90;;;;;;;7.82;84.15;97976.16;224467;1291;22572;-80
2023/11/01 21:49:16;;;;;;;12.80;6.50;;;;;;;7.82;84.26;97976.85;224475;1292;22564;-80
2023/11/01 21:54:24;;;;;;;11.00;6.80;;;;;;;7.83;84.05;97974.85;224631;1289;22599;-80
2023/11/01 21:59:30;;;;;;;8.90;6.10;;;;;;;7.82;84.39;97969.05;224567;1292;22584;-83
2023/11/01 22:04:56;;;;;;;10.00;5.90;;;;;;;7.79;84.30;97967.60;224488;1291;22543;-81
2023/11/01 22:10:17;;;;;;;10.40;5.80;;;;;;;7.76;84.16;97964.38;224475;1292;22598;-80
2023/11/01 22:15:25;;;;;;;13.50;6.50;;;;;;;7.73;84.41;97963.23;224401;1292;22546;-81
2023/11/01 22:20:28;;;;;;;9.40;6.10;;;;;;;7.69;84.07;97955.36;224533;1292;22569;-80
2023/11/01 22:25:58;;;;;;;10.10;6.60;;;;;;;7.65;84.18;97953.21;224507;1292;22572;-80
2023/11/01 22:31:44;;;;;;;13.10;9.40;;;;;;;7.64;84.31;97950.24;224637;1292;23199;-79
2023/11/01 22:36:52;;;;;;;17.50;10.60;;;;;;;7.58;84.05;97942.20;224593;1292;22566;-80
2023/11/01 22:41:56;;;;;;;15.90;10.80;;;;;;;7.52;84.21;97932.23;224557;1291;22604;-81
2023/11/01 22:46:58;;;;;;;14.70;9.40;;;;;;;7.44;84.09;97929.21;224667;1289;22559;-80
2023/11/01 22:52:00;;;;;;;20.10;11.80;;;;;;;7.36;84.36;97923.85;224650;1289;22565;-79
2023/11/01 22:57:05;;;;;;;20.20;12.50;;;;;;;7.28;84.19;97916.25;224641;1285;22569;-80
2023/11/01 23:02:10;;;;;;;22.80;13.60;;;;;;;7.20;83.67;97908.66;224529;1286;23307;-79
2023/11/01 23:07:17;;;;;;;21.20;13.30;;;;;;;7.05;83.76;97902.79;224663;1286;22550;-81
2023/11/01 23:12:20;;;;;;;22.30;13.60;;;;;;;6.93;83.85;97903.42;224491;1289;22570;-82
2023/11/01 23:17:23;;;;;;;23.80;16.60;;;;;;;6.79;83.95;97900.48;224577;1292;22563;-81
2023/11/01 23:22:26;;;;;;;30.80;17.60;;;;;;;6.66;83.84;97897.28;224504;1292;22582;-81
2023/11/01 23:27:29;;;;;;;32.10;18.90;;;;;;;6.57;83.98;97894.86;224501;1292;25354;-82
2023/11/01 23:32:32;;;;;;;29.50;18.90;;;;;;;6.49;84.50;97888.25;224326;1292;25427;-81
2023/11/01 23:37:36;;;;;;;27.90;18.70;;;;;;;6.45;84.48;97879.64;224441;1292;22633;-82
2023/11/01 23:42:40;;;;;;;27.90;17.00;;;;;;;6.41;84.68;97872.27;224471;1289;22591;-81
2023/11/01 23:48:03;;;;;;;26.40;17.30;;;;;;;6.38;84.94;97861.43;224511;1286;22991;-82
2023/11/01 23:53:11;;;;;;;29.00;18.70;;;;;;;6.32;85.05;97856.95;224410;1292;22659;-82
2023/11/01 23:58:16;;;;;;;28.80;18.10;;;;;;;6.27;85.26;97857.57;224306;1292;25309;-82
